Nearby METAR Reports

 

LFSI - St. Dizier/Robin, France
Distance from station: SO 26km
Mise à jour: 28/05/2022 01:00
clair
clair
 Wind from NO
Vent: NO 9 km/h
Température: 13°C
Point de rosée: 7°C
Humidité: 67%
Baromètre: 1023 hPa
Résumé: clair
Visibility: greater than 10 km
2022/05/27 23:00 LFSI 272300Z AUTO 32005KT CAVOK 13/07 Q1023
LFSO - Nancy/Ochey (faf, France
Distance from station: ESE 62km
Mise à jour: 28/05/2022 01:00
clair
clair
 Wind from OSO
Vent: OSO 7 km/h
Température: 11°C
Point de rosée: 10°C
Humidité: 94%
Baromètre: 1023 hPa
Résumé: clair
Visibility: greater than 10 km
2022/05/27 23:00 LFSO 272300Z AUTO 25004KT CAVOK 11/10 Q1023
LFOK - Chalons/Vatry Fa, France
Distance from station: O 73km
Mise à jour: 28/05/2022 01:00
clair
clair
 Wind from N
Vent: N 15 km/h
Température: 11°C
Point de rosée: 7°C
Humidité: 77%
Baromètre: 1024 hPa
Résumé: clair
Visibility: greater than 10 km
2022/05/27 23:00 LFOK 272300Z AUTO 36008KT CAVOK 11/07 Q1024 NOSIG
 
LFSN - Nancy/Essey, France
Distance from station: E 77km
Mise à jour: 28/05/2022 01:00
clair
clair
 Wind from ONO
Vent: ONO 9 km/h
Température: 14°C
Point de rosée: 11°C
Humidité: 82%
Baromètre: 1023 hPa
Résumé: clair
Visibility: greater than 10 km
2022/05/27 23:00 LFSN 272300Z AUTO 30005KT CAVOK 14/11 Q1023
LFSG - Epinal/Mirecourt, France
Distance from station: SE 81km
Mise à jour: 28/05/2022 01:00
partiellement nuageux
partiellement nuageux
 Wind from OSO
Vent: OSO 7 km/h
Température: 10°C
Wind Chill: 9°C
Point de rosée: 9°C
Humidité: 94%
Baromètre: 1023 hPa
Clouds: partiellement nuageux
Visibility: 10 km
Cloud details: Few Clouds 914 m
partiellement nuageux 1829 m
2022/05/27 23:00 LFSG 272300Z AUTO 25004KT 9999 FEW030 SCT060 10/09 Q1023
LFJL - Metz-Nancy-Lorra, France
Distance from station: ENE 82km
Mise à jour: 28/05/2022 01:00
nuageux
nuageux
 Wind from N
Vent: N 9 km/h
Température: 12°C
Point de rosée: 8°C
Humidité: 77%
Baromètre: 1023 hPa
Clouds: nuageux
Visibility: 10 km
Cloud details: nuageux 1341 m
2022/05/27 23:00 LFJL 272300Z AUTO 36005KT 9999 BKN044 12/08 Q1023 NOSIG
 
LFQA - Reims/Prunay, France
Distance from station: ONO 89km
Mise à jour: 28/05/2022 01:00
nuageux
nuageux
 Wind from calm
Vent: calme
Température: 10°C
Point de rosée: 7°C
Humidité: 82%
Baromètre: 1024 hPa
Clouds: nuageux
Visibility: 10 km
Cloud details: Few Clouds 1311 m
nuageux 1646 m
2022/05/27 23:00 LFQA 272300Z AUTO 00000KT 9999 FEW043 BKN054 10/07 Q1024
LFQB - Troyes/Barberey, France
Distance from station: OSO 99km
Mise à jour: 28/05/2022 01:00
clair
clair
 Wind from ONO
Vent: ONO 13 km/h
Température: 12°C
Point de rosée: 10°C
Humidité: 88%
Baromètre: 1024 hPa
Résumé: clair
Visibility: greater than 10 km
2022/05/27 23:00 LFQB 272300Z AUTO 29007KT CAVOK 12/10 Q1024